createdAt,value
2023-02-17T02:38:00.186Z,101055.56
2023-02-17T02:41:21.812Z,101045.75
2023-02-17T02:44:35.357Z,101039.31
2023-02-17T02:47:57.354Z,101033.50
2023-02-17T02:51:30.228Z,101032.31
2023-02-17T02:54:52.739Z,101023.69
2023-02-17T02:58:10.737Z,101018.00
2023-02-17T03:01:26.714Z,101017.59
2023-02-17T03:04:38.246Z,101014.63
2023-02-17T03:07:50.311Z,101005.22
2023-02-17T03:10:59.179Z,101008.97
2023-02-17T03:14:08.209Z,101014.53
2023-02-17T03:17:12.019Z,101004.63
2023-02-17T03:20:19.307Z,101008.16
2023-02-17T03:23:26.879Z,101002.34
2023-02-17T03:26:33.130Z,100999.28
2023-02-17T03:29:40.088Z,100997.09
2023-02-17T03:32:48.018Z,100999.53
2023-02-17T03:35:53.089Z,100987.97
2023-02-17T03:39:02.144Z,100993.53
2023-02-17T03:42:11.373Z,100991.50
2023-02-17T03:45:14.820Z,101001.91
2023-02-17T03:48:21.508Z,100997.69
2023-02-17T03:51:29.128Z,101004.97
2023-02-17T03:54:33.110Z,101002.88
2023-02-17T03:57:39.535Z,101001.16
2023-02-17T04:00:45.232Z,101002.28
2023-02-17T04:03:50.748Z,101001.75
2023-02-17T04:06:59.091Z,100997.78
2023-02-17T04:10:05.872Z,101008.88
2023-02-17T04:13:12.695Z,101007.84
2023-02-17T04:16:18.091Z,101010.38
2023-02-17T04:19:24.162Z,101007.25
2023-02-17T04:22:31.020Z,101010.97
2023-02-17T04:25:40.112Z,101021.44
2023-02-17T04:28:50.541Z,101024.44
2023-02-17T04:31:57.631Z,101028.84
2023-02-17T04:35:07.771Z,101024.16
2023-02-17T04:38:15.953Z,101023.91
2023-02-17T04:41:24.514Z,101030.69
2023-02-17T04:44:37.132Z,101029.00
2023-02-17T04:47:44.588Z,101026.03
2023-02-17T04:50:53.687Z,101035.41
2023-02-17T04:53:59.306Z,101026.81
2023-02-17T04:57:07.441Z,101036.53
2023-02-17T05:00:15.870Z,101028.41
2023-02-17T05:03:25.260Z,101027.75
2023-02-17T05:06:36.814Z,101025.53
2023-02-17T05:09:42.488Z,101031.78
2023-02-17T05:12:50.568Z,101029.75
2023-02-17T05:16:14.713Z,101031.72
2023-02-17T05:19:28.968Z,101032.81
2023-02-17T05:22:36.907Z,101027.13
2023-02-17T05:25:44.061Z,101034.25
2023-02-17T05:28:55.559Z,101043.81
2023-02-17T05:32:11.180Z,101042.53
2023-02-17T05:35:23.767Z,101043.50
2023-02-17T05:38:30.722Z,101035.19
2023-02-17T05:41:36.115Z,101042.69
2023-02-17T05:44:42.096Z,101041.78
2023-02-17T05:47:50.944Z,101047.94
2023-02-17T05:50:58.218Z,101044.72
2023-02-17T05:54:05.841Z,101038.84
2023-02-17T05:57:14.604Z,101052.88
2023-02-17T06:00:27.589Z,101051.69
2023-02-17T06:03:37.024Z,101057.53
2023-02-17T06:06:43.580Z,101059.41
2023-02-17T06:09:53.770Z,101056.78
2023-02-17T06:13:00.751Z,101056.78
2023-02-17T06:16:13.308Z,101051.53
2023-02-17T06:19:25.693Z,101055.97
2023-02-17T06:22:34.070Z,101058.03
2023-02-17T06:25:42.903Z,101054.91
2023-02-17T06:28:49.826Z,101041.25
2023-02-17T06:31:59.293Z,101049.91
2023-02-17T06:35:14.093Z,101048.06
2023-02-17T06:38:22.609Z,101047.63
2023-02-17T06:41:49.764Z,101046.34
2023-02-17T06:44:55.116Z,101048.63
2023-02-17T06:48:01.868Z,101060.41
2023-02-17T06:51:19.342Z,101054.31
2023-02-17T06:54:21.858Z,101059.28
2023-02-17T06:57:27.828Z,101056.66
2023-02-17T07:00:34.240Z,101061.00
2023-02-17T07:03:39.566Z,101068.69
2023-02-17T07:06:47.895Z,101074.28
2023-02-17T07:09:51.498Z,101080.28
2023-02-17T07:12:56.686Z,101087.97
2023-02-17T07:15:59.558Z,101085.34
2023-02-17T07:19:04.082Z,101097.72
2023-02-17T07:22:11.123Z,101099.06
2023-02-17T07:25:15.740Z,101101.84
2023-02-17T07:28:20.861Z,101106.19
2023-02-17T07:31:25.323Z,101106.34
2023-02-17T07:34:29.758Z,101120.22
2023-02-17T07:37:36.342Z,101122.06
2023-02-17T07:40:43.300Z,101127.00
2023-02-17T07:43:50.674Z,101131.28
2023-02-17T07:46:57.121Z,101129.44
2023-02-17T07:50:01.178Z,101118.00
2023-02-17T07:53:07.105Z,101118.00
2023-02-17T07:56:13.200Z,101116.16
2023-02-17T07:59:19.737Z,101115.38
2023-02-17T08:02:23.318Z,101108.78
2023-02-17T08:05:26.962Z,101114.03
2023-02-17T08:08:55.387Z,101109.72
2023-02-17T08:12:19.645Z,101112.34
2023-02-17T08:15:28.448Z,101102.81
2023-02-17T08:18:36.785Z,101122.25
2023-02-17T08:21:42.253Z,101120.56
2023-02-17T08:24:51.286Z,101113.63
2023-02-17T08:27:58.235Z,101137.22
2023-02-17T08:31:03.277Z,101128.59
2023-02-17T08:34:13.259Z,101114.91
2023-02-17T08:37:17.268Z,101114.13
2023-02-17T08:40:22.468Z,101116.94
2023-02-17T08:43:26.648Z,101122.34
2023-02-17T08:46:31.567Z,101112.94
2023-02-17T08:49:36.308Z,101112.03
2023-02-17T08:52:42.085Z,101111.06
2023-02-17T08:55:49.769Z,101100.78
2023-02-17T08:58:55.335Z,101107.44
2023-02-17T09:02:00.504Z,101112.09
2023-02-17T09:05:05.083Z,101104.75
2023-02-17T09:08:09.779Z,101111.84
2023-02-17T09:11:17.548Z,101105.41
2023-02-17T09:14:24.656Z,101104.16
2023-02-17T09:17:32.438Z,101098.66
2023-02-17T09:20:40.478Z,101120.06
2023-02-17T09:23:44.979Z,101122.84
2023-02-17T09:26:50.433Z,101134.69
2023-02-17T09:29:55.589Z,101144.69
2023-02-17T09:33:01.245Z,101139.09
2023-02-17T09:36:06.133Z,101127.31
2023-02-17T09:39:14.519Z,101132.75
2023-02-17T09:42:25.260Z,101124.88
2023-02-17T09:45:37.352Z,101122.25
2023-02-17T09:48:43.712Z,101118.38
2023-02-17T09:51:54.507Z,101118.69
2023-02-17T09:55:04.408Z,101122.84
2023-02-17T09:58:16.143Z,101126.41
2023-02-17T10:01:24.067Z,101135.94
2023-02-17T10:04:34.718Z,101143.06
2023-02-17T10:07:47.667Z,101150.75
2023-02-17T10:11:00.243Z,101142.66
2023-02-17T10:14:13.305Z,101144.84
2023-02-17T10:17:26.080Z,101149.84
2023-02-17T10:20:35.459Z,101156.53
2023-02-17T10:23:40.413Z,101159.16
2023-02-17T10:27:01.271Z,101169.56
2023-02-17T10:30:21.915Z,101162.97
2023-02-17T10:33:34.525Z,101158.84
2023-02-17T10:36:52.905Z,101160.09
2023-02-17T10:39:59.517Z,101161.63
2023-02-17T10:43:10.980Z,101162.88
2023-02-17T10:46:22.581Z,101158.59
2023-02-17T10:49:33.266Z,101157.81
2023-02-17T10:52:40.673Z,101152.16
2023-02-17T10:56:01.666Z,101151.75
2023-02-17T10:59:15.313Z,101138.34
2023-02-17T11:02:26.009Z,101148.59
2023-02-17T11:05:35.658Z,101142.00
2023-02-17T11:08:40.400Z,101132.31
2023-02-17T11:11:55.721Z,101133.25
2023-02-17T11:14:59.558Z,101131.28
2023-02-17T11:18:11.772Z,101134.06
2023-02-17T11:21:13.991Z,101124.50
2023-02-17T11:24:17.970Z,101133.31
2023-02-17T11:27:27.196Z,101132.38
2023-02-17T11:30:34.039Z,101130.84
2023-02-17T11:33:43.736Z,101130.94
2023-02-17T11:37:01.588Z,101128.38
2023-02-17T11:40:26.556Z,101120.66
2023-02-17T11:43:35.021Z,101119.91
2023-02-17T11:46:48.065Z,101117.28
2023-02-17T11:50:38.984Z,101115.19
2023-02-17T11:54:02.234Z,101106.53
2023-02-17T11:57:19.578Z,101114.31
2023-02-17T12:00:33.621Z,101109.88
2023-02-17T12:04:18.343Z,101102.53
2023-02-17T12:08:01.242Z,101102.09
2023-02-17T12:11:17.626Z,101099.53
2023-02-17T12:14:44.739Z,101103.75
2023-02-17T12:18:02.272Z,101094.53
2023-02-17T12:21:13.274Z,101088.47
2023-02-17T12:24:43.468Z,101095.59
2023-02-17T12:28:00.585Z,101097.78
2023-02-17T12:31:16.526Z,101100.75
2023-02-17T12:34:30.541Z,101098.13
2023-02-17T12:37:48.356Z,101095.50
2023-02-17T12:40:58.940Z,101096.78
2023-02-17T12:44:09.276Z,101102.97
2023-02-17T12:47:31.078Z,101092.78
2023-02-17T12:50:42.752Z,101090.50
2023-02-17T12:54:00.103Z,101086.50
2023-02-17T12:57:14.776Z,101086.34
2023-02-17T13:00:23.088Z,101076.91
2023-02-17T13:03:33.724Z,101074.78
2023-02-17T13:06:45.571Z,101058.91
2023-02-17T13:09:54.821Z,101068.03
2023-02-17T13:13:09.821Z,101065.22
2023-02-17T13:16:17.956Z,101063.22
2023-02-17T13:19:31.529Z,101057.75
2023-02-17T13:22:37.766Z,101054.94
2023-02-17T13:25:42.195Z,101052.47
2023-02-17T13:28:57.381Z,101050.00
2023-02-17T13:33:04.341Z,101038.72
2023-02-17T13:36:37.404Z,101043.00
2023-02-17T13:39:50.163Z,101054.78
2023-02-17T13:43:04.206Z,101041.59
2023-02-17T13:46:25.883Z,101038.06
2023-02-17T13:49:36.231Z,101056.50
2023-02-17T13:52:46.208Z,101056.84
2023-02-17T13:55:54.159Z,101047.25
2023-02-17T13:59:41.375Z,101050.19
2023-02-17T14:02:59.668Z,101051.63
2023-02-17T14:16:33.914Z,101044.22
2023-02-17T14:19:49.074Z,101041.75
2023-02-17T14:23:12.569Z,101039.41
2023-02-17T14:26:32.274Z,101031.63
2023-02-17T14:29:42.145Z,101025.34
2023-02-17T14:39:08.553Z,101013.41
2023-02-17T14:42:16.314Z,101022.13
2023-02-17T14:45:24.265Z,101004.72
2023-02-17T14:49:11.538Z,101013.88
2023-02-17T14:52:24.664Z,101010.63
2023-02-17T14:56:05.076Z,101016.22
2023-02-17T14:59:19.325Z,101014.50
2023-02-17T15:08:11.084Z,101003.50
2023-02-17T15:11:46.750Z,101003.03
2023-02-17T15:14:57.309Z,101001.03
2023-02-17T15:18:09.913Z,101018.34
2023-02-17T15:21:33.196Z,101015.72
2023-02-17T15:24:48.917Z,101018.06
2023-02-17T15:28:03.208Z,101029.03
2023-02-17T15:31:16.581Z,101031.06
2023-02-17T15:34:25.396Z,101029.66
2023-02-17T15:37:30.537Z,101029.97
2023-02-17T15:40:36.559Z,101027.63
2023-02-17T15:43:46.715Z,101037.56
2023-02-17T15:46:52.792Z,101028.91
2023-02-17T15:50:00.667Z,101038.19
2023-02-17T15:53:08.319Z,101035.72
2023-02-17T15:56:20.525Z,101033.09
2023-02-17T15:59:29.931Z,101035.53
2023-02-17T16:02:39.892Z,101043.59
2023-02-17T16:05:45.459Z,101039.41
2023-02-17T16:08:54.387Z,101056.09
2023-02-17T16:12:03.552Z,101047.75
2023-02-17T16:15:15.514Z,101048.06
2023-02-17T16:18:25.041Z,101057.78
2023-02-17T16:21:43.288Z,101065.34
2023-02-17T16:24:55.713Z,101072.31
2023-02-17T16:28:18.144Z,101066.88
2023-02-17T17:19:24.664Z,101123.53
2023-02-17T17:22:27.968Z,101123.72
2023-02-17T17:25:34.977Z,101128.03
2023-02-17T17:29:05.515Z,101118.13
2023-02-17T17:32:27.729Z,101130.63
2023-02-17T17:35:47.750Z,101126.16
2023-02-17T17:38:55.851Z,101133.13
2023-02-17T17:42:02.819Z,101124.50
2023-02-17T17:45:10.992Z,101119.22
2023-02-17T17:48:27.538Z,101126.06
2023-02-17T18:57:22.700Z,101175.91
2023-02-17T19:00:37.377Z,101174.47
2023-02-17T19:03:49.584Z,101176.94
2023-02-17T19:12:24.124Z,101197.66
